< < Back
Terminal Aerodrome Forecast


Current Version              Previous Versions:   1  2  3  4  5  6  7  8  9  

Terminal Aerodrome Forecast

526
FTUS42 KMLB 260520
TAFDAB
TAF
KDAB 260520Z 2606/2706 27003KT P6SM FEW035 FEW250
     FM261400 02004KT P6SM SCT025
     FM261700 10008KT P6SM VCTS SCT030CB BKN100
     FM262000 10008KT P6SM SCT030 BKN200
     FM270000 VRB03KT P6SM FEW030 SCT120 BKN250=

Latest METAR

919
SAUS80 KWBC 261200 RRA
MTRDAB
METAR KDAB 261153Z 00000KT 10SM FEW030 BKN250 23/23 A2999 RMK AO2 SLP156
CB DSNT N-NE T02330228 10239 20222 53008


USA.gov is the U.S. government's official web portal to all federal, state and local government web resources and services.